createdAt,value
2018-09-14T00:01:13.460Z,28.20
2018-09-14T00:03:41.993Z,30.07
2018-09-14T00:06:10.540Z,28.50
2018-09-14T00:08:39.090Z,27.20
2018-09-14T00:11:07.637Z,30.13
2018-09-14T00:13:36.184Z,25.77
2018-09-14T00:16:04.729Z,25.67
2018-09-14T00:18:33.268Z,30.37
2018-09-14T00:21:01.784Z,30.30
2018-09-14T00:23:30.354Z,28.70
2018-09-14T00:25:58.876Z,29.17
2018-09-14T00:28:27.425Z,26.50
2018-09-14T00:30:55.951Z,27.60
2018-09-14T00:33:24.501Z,27.33
2018-09-14T00:35:53.033Z,26.20
2018-09-14T00:38:21.577Z,30.57
2018-09-14T00:40:50.395Z,31.83
2018-09-14T00:43:18.916Z,23.63
2018-09-14T00:45:47.460Z,26.83
2018-09-14T00:48:15.977Z,30.50
2018-09-14T00:50:44.540Z,29.57
2018-09-14T00:53:13.107Z,31.23
2018-09-14T00:55:41.658Z,28.33
2018-09-14T00:58:10.172Z,28.27
2018-09-14T01:00:38.722Z,30.20
2018-09-14T01:03:07.241Z,26.87
2018-09-14T01:05:35.818Z,31.27
2018-09-14T01:08:04.352Z,28.57
2018-09-14T01:10:32.901Z,26.60
2018-09-14T01:13:01.420Z,27.27
2018-09-14T01:15:29.977Z,27.50
2018-09-14T01:17:58.772Z,27.20
2018-09-14T01:20:27.320Z,27.93
2018-09-14T01:22:55.844Z,28.00
2018-09-14T01:25:24.689Z,26.80
2018-09-14T01:27:53.209Z,26.13
2018-09-14T01:30:21.756Z,24.50
2018-09-14T01:32:50.276Z,22.27
2018-09-14T01:35:24.061Z,22.10
2018-09-14T01:37:52.571Z,21.10
2018-09-14T01:40:21.117Z,21.20
2018-09-14T01:42:49.629Z,21.77
2018-09-14T01:45:18.185Z,19.87
2018-09-14T01:47:46.709Z,20.33
2018-09-14T01:50:15.253Z,20.30
2018-09-14T01:52:43.760Z,20.60
2018-09-14T01:55:12.313Z,20.43
2018-09-14T01:57:40.900Z,19.53
2018-09-14T02:00:09.500Z,20.17
2018-09-14T02:02:38.004Z,20.43
2018-09-14T02:05:06.641Z,19.37
2018-09-14T02:07:35.172Z,18.33
2018-09-14T02:10:03.765Z,20.27
2018-09-14T02:12:32.388Z,19.40
2018-09-14T02:15:00.954Z,18.53
2018-09-14T02:17:29.492Z,17.83
2018-09-14T02:19:58.065Z,17.83
2018-09-14T02:22:26.602Z,17.63
2018-09-14T02:24:55.156Z,17.67
2018-09-14T02:27:23.696Z,18.37
2018-09-14T02:29:52.268Z,18.57
2018-09-14T02:32:20.800Z,16.87
2018-09-14T02:34:49.372Z,17.73
2018-09-14T02:37:17.952Z,16.50
2018-09-14T02:39:46.479Z,15.70
2018-09-14T02:42:15.037Z,17.63
2018-09-14T02:44:43.562Z,17.33
2018-09-14T02:47:12.126Z,16.50
2018-09-14T02:49:40.660Z,16.77
2018-09-14T02:52:09.224Z,17.50
2018-09-14T02:54:37.821Z,16.33
2018-09-14T02:57:06.389Z,17.10
2018-09-14T02:59:34.919Z,17.43
2018-09-14T03:02:03.517Z,16.93
2018-09-14T03:04:32.124Z,16.77
2018-09-14T03:07:00.674Z,16.83
2018-09-14T03:09:29.213Z,15.73
2018-09-14T03:11:58.177Z,16.57
2018-09-14T03:14:26.736Z,15.13
2018-09-14T03:16:55.301Z,15.77
2018-09-14T03:19:23.820Z,16.10
2018-09-14T03:21:52.404Z,15.30
2018-09-14T03:24:21.171Z,15.50
2018-09-14T03:26:49.732Z,14.73
2018-09-14T03:29:18.510Z,14.43
2018-09-14T03:31:47.068Z,13.90
2018-09-14T03:34:15.576Z,14.33
2018-09-14T03:36:44.120Z,14.10
2018-09-14T03:39:12.667Z,15.37
2018-09-14T03:41:41.212Z,15.07
2018-09-14T03:44:09.779Z,15.63
2018-09-14T03:46:38.321Z,15.43
2018-09-14T03:49:06.835Z,14.60
2018-09-14T03:51:35.383Z,15.37
2018-09-14T03:54:03.902Z,14.77
2018-09-14T03:56:32.449Z,13.57
2018-09-14T03:59:00.973Z,15.07
2018-09-14T04:01:29.536Z,14.83
2018-09-14T04:03:58.064Z,15.93
2018-09-14T04:06:26.636Z,15.10
2018-09-14T04:08:55.152Z,16.03
2018-09-14T04:11:23.764Z,16.47
2018-09-14T04:13:52.283Z,18.07
2018-09-14T04:16:24.843Z,17.70
2018-09-14T04:18:58.880Z,18.07
2018-09-14T04:21:29.069Z,18.23
2018-09-14T04:23:57.813Z,17.43
2018-09-14T04:26:27.512Z,16.83
2018-09-14T04:28:56.513Z,19.37
2018-09-14T04:31:25.090Z,18.17
2018-09-14T04:33:53.761Z,18.00
2018-09-14T04:36:22.380Z,18.40
2018-09-14T04:38:51.007Z,18.60
2018-09-14T04:41:20.365Z,15.97
2018-09-14T04:43:49.826Z,17.80
2018-09-14T04:46:18.794Z,17.67
2018-09-14T04:48:47.338Z,16.47
2018-09-14T04:51:15.895Z,17.90
2018-09-14T04:53:44.432Z,16.47
2018-09-14T04:56:12.953Z,16.03
2018-09-14T04:58:41.501Z,17.20
2018-09-14T05:01:10.021Z,16.13
2018-09-14T05:03:39.045Z,16.87
2018-09-14T05:06:07.608Z,17.07
2018-09-14T05:08:36.251Z,17.13
2018-09-14T05:11:04.841Z,16.30
2018-09-14T05:13:33.405Z,16.00
2018-09-14T05:16:04.143Z,17.40
2018-09-14T05:18:41.306Z,18.20
2018-09-14T05:21:10.153Z,17.80
2018-09-14T05:23:39.634Z,17.83
2018-09-14T05:26:08.776Z,18.07
2018-09-14T05:28:37.336Z,16.57
2018-09-14T05:31:06.434Z,17.47
2018-09-14T05:33:35.383Z,16.87
2018-09-14T05:36:03.936Z,16.03
2018-09-14T05:38:32.532Z,16.17
2018-09-14T05:41:01.062Z,17.80
2018-09-14T05:43:29.804Z,16.07
2018-09-14T05:45:58.333Z,16.53
2018-09-14T05:48:27.088Z,15.10
2018-09-14T05:50:55.736Z,14.97
2018-09-14T05:53:24.299Z,15.13
2018-09-14T05:55:54.304Z,15.73
2018-09-14T05:58:22.865Z,14.70
2018-09-14T06:00:51.493Z,15.63
2018-09-14T06:03:20.109Z,14.13
2018-09-14T06:05:48.700Z,14.93
2018-09-14T06:08:17.273Z,14.00
2018-09-14T06:10:45.809Z,15.07
2018-09-14T06:13:14.411Z,14.60
2018-09-14T06:15:42.946Z,14.77
2018-09-14T06:18:11.512Z,14.90
2018-09-14T06:20:40.036Z,16.37
2018-09-14T06:23:08.666Z,14.87
2018-09-14T06:25:37.165Z,13.80
2018-09-14T06:28:05.873Z,13.10
2018-09-14T06:30:39.021Z,13.57
2018-09-14T06:33:13.497Z,14.43
2018-09-14T06:35:42.253Z,15.80
2018-09-14T06:38:13.717Z,15.13
2018-09-14T06:40:42.457Z,14.77
2018-09-14T06:43:11.108Z,13.70
2018-09-14T06:45:39.656Z,15.07
2018-09-14T06:48:08.225Z,15.60
2018-09-14T06:50:36.778Z,14.90
2018-09-14T06:53:05.357Z,15.03
2018-09-14T06:55:33.941Z,16.03
2018-09-14T06:58:02.485Z,15.43
2018-09-14T07:00:31.135Z,16.20
2018-09-14T07:02:59.612Z,15.20
2018-09-14T07:05:28.299Z,14.63
2018-09-14T07:07:56.846Z,14.83
2018-09-14T07:10:25.426Z,15.37
2018-09-14T07:12:53.964Z,15.10
2018-09-14T07:15:22.867Z,14.87
2018-09-14T07:17:51.421Z,14.43
2018-09-14T07:20:19.981Z,14.33
2018-09-14T07:22:48.521Z,14.43
2018-09-14T07:25:17.088Z,17.80
2018-09-14T07:27:45.636Z,15.37
2018-09-14T07:30:14.272Z,15.70
2018-09-14T07:32:43.053Z,16.17
2018-09-14T07:35:11.650Z,15.10
2018-09-14T07:37:40.185Z,15.20
2018-09-14T07:40:08.766Z,16.03
2018-09-14T07:42:37.343Z,14.23
2018-09-14T07:45:06.293Z,14.40
2018-09-14T07:47:34.828Z,14.00
2018-09-14T07:50:03.407Z,13.97
2018-09-14T07:52:31.941Z,13.10
2018-09-14T07:55:00.512Z,13.87
2018-09-14T07:57:29.054Z,13.17
2018-09-14T07:59:57.628Z,12.23
2018-09-14T08:02:26.178Z,14.13
2018-09-14T08:04:54.758Z,14.60
2018-09-14T08:07:23.275Z,11.80
2018-09-14T08:09:52.109Z,12.77
2018-09-14T08:12:20.649Z,12.37
2018-09-14T08:14:49.201Z,12.77
2018-09-14T08:17:17.728Z,11.73
2018-09-14T08:19:46.276Z,11.90
2018-09-14T08:22:14.784Z,12.00
2018-09-14T08:24:43.368Z,13.20
2018-09-14T08:27:11.907Z,11.57
2018-09-14T08:29:40.428Z,12.57
2018-09-14T08:32:09.002Z,12.07
2018-09-14T08:34:37.523Z,12.43
2018-09-14T08:37:06.104Z,11.67
2018-09-14T08:39:34.622Z,11.77
2018-09-14T08:42:03.169Z,12.67
2018-09-14T08:44:31.689Z,11.67
2018-09-14T08:47:00.297Z,11.97
2018-09-14T08:49:28.817Z,11.93
2018-09-14T08:51:57.433Z,11.37
2018-09-14T08:54:25.961Z,11.20
2018-09-14T08:56:54.513Z,11.33
2018-09-14T08:59:23.045Z,9.77
2018-09-14T09:01:51.613Z,10.20
2018-09-14T09:04:20.133Z,10.90
2018-09-14T09:06:48.722Z,12.40
2018-09-14T09:09:17.306Z,11.50
2018-09-14T09:11:45.789Z,10.63
2018-09-14T09:14:14.309Z,11.43
2018-09-14T09:16:43.196Z,10.67
2018-09-14T09:19:11.726Z,10.40
2018-09-14T09:21:40.274Z,10.97
2018-09-14T09:24:08.808Z,10.87
2018-09-14T09:26:37.358Z,10.33
2018-09-14T09:29:06.046Z,9.87
2018-09-14T09:31:34.596Z,9.37
2018-09-14T09:34:03.120Z,8.80
2018-09-14T09:36:31.677Z,9.70
2018-09-14T09:39:00.189Z,10.13
2018-09-14T09:41:28.728Z,8.97
2018-09-14T09:43:57.301Z,11.40
2018-09-14T09:46:25.804Z,10.33
2018-09-14T09:48:54.321Z,10.77
2018-09-14T09:51:22.930Z,9.07
2018-09-14T09:53:51.400Z,9.43
2018-09-14T09:56:19.939Z,9.87
2018-09-14T09:58:48.509Z,9.37
2018-09-14T10:01:22.289Z,9.87
2018-09-14T10:05:58.413Z,11.00
2018-09-14T10:08:27.028Z,9.03
2018-09-14T10:10:55.577Z,8.53
2018-09-14T10:13:24.141Z,8.23
2018-09-14T10:15:52.664Z,8.63
2018-09-14T10:18:21.231Z,9.20
2018-09-14T10:20:49.828Z,8.60
2018-09-14T10:23:18.682Z,9.70
2018-09-14T10:25:50.120Z,8.70
2018-09-14T10:28:18.686Z,8.47
2018-09-14T10:30:47.204Z,8.80
2018-09-14T10:33:15.805Z,7.20
2018-09-14T10:35:44.363Z,7.73
2018-09-14T10:38:12.922Z,6.97
2018-09-14T10:40:41.471Z,7.00
2018-09-14T10:43:10.018Z,7.30
2018-09-14T10:45:38.569Z,7.63
2018-09-14T10:48:07.162Z,6.87
2018-09-14T10:50:35.677Z,6.90
2018-09-14T10:53:04.293Z,8.47
2018-09-14T10:55:32.821Z,7.93
2018-09-14T10:58:01.369Z,7.20
2018-09-14T11:00:29.900Z,7.80
2018-09-14T11:02:58.457Z,7.73
2018-09-14T11:05:27.008Z,7.07
2018-09-14T11:07:55.553Z,6.80
2018-09-14T11:10:24.116Z,7.20
2018-09-14T11:12:52.715Z,6.30
2018-09-14T11:15:21.232Z,5.83
2018-09-14T11:17:49.776Z,5.33
2018-09-14T11:20:18.288Z,6.43
2018-09-14T11:22:45.783Z,5.47
2018-09-14T11:25:14.466Z,5.23
2018-09-14T11:27:42.941Z,5.67
2018-09-14T11:30:11.481Z,5.60
2018-09-14T11:32:40.103Z,6.57
2018-09-14T11:35:08.708Z,5.73
2018-09-14T11:37:37.265Z,6.27
2018-09-14T11:40:05.833Z,6.63
2018-09-14T11:42:34.648Z,6.77
2018-09-14T11:45:03.212Z,6.33
2018-09-14T11:47:34.970Z,7.13
2018-09-14T11:50:05.211Z,6.27
2018-09-14T11:52:33.818Z,6.83
2018-09-14T11:55:03.078Z,6.30
2018-09-14T11:57:32.069Z,11.93
2018-09-14T12:00:00.613Z,6.07
2018-09-14T12:02:30.135Z,11.27
2018-09-14T12:04:59.737Z,8.27
2018-09-14T12:07:35.879Z,6.77
2018-09-14T12:10:12.215Z,9.93
2018-09-14T12:12:40.968Z,6.50
2018-09-14T12:15:13.288Z,6.30
2018-09-14T12:17:46.389Z,5.57
2018-09-14T12:20:14.984Z,5.33
2018-09-14T12:22:47.531Z,4.50
2018-09-14T12:25:19.471Z,6.03
2018-09-14T12:27:54.008Z,5.13
2018-09-14T12:30:25.841Z,4.80
2018-09-14T12:32:55.878Z,5.30
2018-09-14T12:35:24.424Z,5.23
2018-09-14T12:37:52.993Z,11.23
2018-09-14T12:40:22.852Z,5.40
2018-09-14T12:42:56.106Z,5.53
2018-09-14T12:45:24.690Z,5.70
2018-09-14T12:47:54.204Z,5.50
2018-09-14T12:50:24.864Z,5.53
2018-09-14T12:52:53.418Z,6.10
2018-09-14T12:55:23.447Z,5.13
2018-09-14T12:57:54.403Z,6.23
2018-09-14T13:00:23.029Z,8.47
2018-09-14T13:02:56.747Z,6.70
2018-09-14T13:05:30.461Z,7.47
2018-09-14T13:08:00.873Z,7.67
2018-09-14T13:10:33.509Z,6.10
2018-09-14T13:13:07.267Z,12.43
2018-09-14T13:15:36.345Z,8.80
2018-09-14T13:18:10.900Z,7.30
2018-09-14T13:20:41.829Z,7.03
2018-09-14T13:23:10.332Z,7.30
2018-09-14T13:25:38.865Z,6.10
2018-09-14T13:28:07.421Z,5.80
2018-09-14T13:30:39.101Z,6.17
2018-09-14T13:33:09.337Z,7.87
2018-09-14T13:35:37.939Z,7.10
2018-09-14T13:38:06.963Z,6.63
2018-09-14T13:40:35.516Z,6.83
2018-09-14T13:43:04.037Z,6.10
2018-09-14T13:45:32.597Z,6.93
2018-09-14T13:48:08.686Z,5.80
2018-09-14T13:50:39.435Z,7.00
2018-09-14T13:53:07.991Z,4.60
2018-09-14T13:55:36.560Z,4.90
2018-09-14T13:58:08.931Z,4.53
2018-09-14T14:00:37.690Z,4.63
2018-09-14T14:03:06.733Z,4.37
2018-09-14T14:05:35.564Z,4.87
2018-09-14T14:08:04.076Z,4.53
2018-09-14T14:10:32.586Z,5.30
2018-09-14T14:13:01.203Z,6.87
2018-09-14T14:15:34.178Z,7.77
2018-09-14T14:18:06.875Z,7.73
2018-09-14T14:20:35.641Z,8.00
2018-09-14T14:23:04.202Z,8.00
2018-09-14T14:25:32.817Z,7.53
2018-09-14T14:28:01.378Z,6.90
2018-09-14T14:30:29.884Z,6.73
2018-09-14T14:32:58.582Z,7.13
2018-09-14T14:35:27.100Z,7.23
2018-09-14T14:38:03.310Z,5.77
2018-09-14T14:40:32.186Z,6.40
2018-09-14T14:43:00.948Z,6.53
2018-09-14T14:45:30.444Z,6.17
2018-09-14T14:47:59.260Z,5.37
2018-09-14T14:50:27.768Z,9.00
2018-09-14T14:52:57.826Z,6.87
2018-09-14T14:55:26.745Z,6.00
2018-09-14T14:57:55.929Z,7.30
2018-09-14T15:00:24.457Z,6.43
2018-09-14T15:02:53.009Z,6.63
2018-09-14T15:05:21.566Z,7.40
2018-09-14T15:07:50.116Z,6.83
2018-09-14T15:10:18.632Z,6.20
2018-09-14T15:12:47.181Z,6.90
2018-09-14T15:15:20.247Z,6.77
2018-09-14T15:17:48.953Z,6.40
2018-09-14T15:20:17.505Z,5.80
2018-09-14T15:22:46.052Z,5.03
2018-09-14T15:25:16.976Z,5.00
2018-09-14T15:27:47.704Z,4.50
2018-09-14T15:30:18.395Z,4.93
2018-09-14T15:32:47.020Z,4.57
2018-09-14T15:35:18.245Z,4.20
2018-09-14T15:37:48.336Z,3.57
2018-09-14T15:40:18.145Z,3.80
2018-09-14T15:42:46.698Z,3.63
2018-09-14T15:45:15.214Z,3.07
2018-09-14T15:47:43.803Z,3.10
2018-09-14T15:50:12.329Z,3.50
2018-09-14T15:52:40.874Z,3.37
2018-09-14T15:55:09.436Z,3.60
2018-09-14T15:57:39.974Z,3.50
2018-09-14T16:00:08.716Z,3.57
2018-09-14T16:02:37.240Z,3.60
2018-09-14T16:05:05.881Z,4.00
2018-09-14T16:07:34.416Z,3.10
2018-09-14T16:10:05.377Z,4.03
2018-09-14T16:12:33.920Z,3.83
2018-09-14T16:15:02.519Z,3.03
2018-09-14T16:17:32.885Z,3.43
2018-09-14T16:20:01.537Z,4.00
2018-09-14T16:22:30.073Z,3.13
2018-09-14T16:25:03.590Z,4.07
2018-09-14T16:27:32.118Z,4.40
2018-09-14T16:30:00.677Z,5.17
2018-09-14T16:32:29.209Z,6.07
2018-09-14T16:34:58.081Z,5.93
2018-09-14T16:37:26.759Z,5.37
2018-09-14T16:39:55.329Z,7.20
2018-09-14T16:42:23.871Z,6.97
2018-09-14T16:44:52.461Z,6.60
2018-09-14T16:47:21.000Z,6.60
2018-09-14T16:49:49.566Z,6.67
2018-09-14T16:52:18.111Z,7.00
2018-09-14T16:54:46.672Z,12.63
2018-09-14T16:57:15.205Z,6.00
2018-09-14T16:59:43.800Z,6.37
2018-09-14T17:02:12.342Z,6.93
2018-09-14T17:04:40.973Z,6.20
2018-09-14T17:07:09.590Z,6.70
2018-09-14T17:09:38.165Z,6.90
2018-09-14T17:12:06.701Z,6.00
2018-09-14T17:14:35.309Z,6.17
2018-09-14T17:17:03.820Z,6.80
2018-09-14T17:19:32.364Z,6.40
2018-09-14T17:22:00.901Z,7.03
2018-09-14T17:24:29.439Z,6.43
2018-09-14T17:26:57.957Z,5.50
2018-09-14T17:29:26.509Z,7.57
2018-09-14T17:31:55.030Z,6.23
2018-09-14T17:34:29.434Z,7.07
2018-09-14T17:37:02.214Z,6.70
2018-09-14T17:39:30.808Z,5.97
2018-09-14T17:41:59.309Z,6.67
2018-09-14T17:44:35.625Z,7.03
2018-09-14T17:47:06.699Z,6.07
2018-09-14T17:49:40.395Z,6.30
2018-09-14T17:52:09.030Z,6.93
2018-09-14T17:54:37.577Z,7.47
2018-09-14T17:57:06.083Z,6.77
2018-09-14T17:59:34.648Z,6.67
2018-09-14T18:02:03.171Z,6.77
2018-09-14T18:04:35.450Z,6.80
2018-09-14T18:07:04.164Z,7.13
2018-09-14T18:09:32.689Z,6.97
2018-09-14T18:12:01.256Z,7.00
2018-09-14T18:14:29.840Z,6.43
2018-09-14T18:16:58.880Z,6.57
2018-09-14T18:19:27.421Z,6.33
2018-09-14T18:21:56.082Z,6.50
2018-09-14T18:24:25.009Z,6.30
2018-09-14T18:26:53.603Z,5.73
2018-09-14T18:29:22.158Z,6.13
2018-09-14T18:31:51.402Z,6.67
2018-09-14T18:34:19.953Z,7.10
2018-09-14T18:36:48.576Z,6.27
2018-09-14T18:39:17.112Z,5.73
2018-09-14T18:41:47.177Z,6.37
2018-09-14T18:44:23.981Z,7.03
2018-09-14T18:46:52.759Z,6.60
2018-09-14T18:49:26.574Z,6.37
2018-09-14T18:52:02.861Z,6.17
2018-09-14T18:54:34.249Z,6.90
2018-09-14T18:57:02.834Z,6.67
2018-09-14T18:59:31.396Z,6.60
2018-09-14T19:01:59.973Z,6.17
2018-09-14T19:04:28.493Z,6.20
2018-09-14T19:06:57.093Z,6.33
2018-09-14T19:09:25.624Z,5.93
2018-09-14T19:11:54.185Z,7.87
2018-09-14T19:14:22.725Z,6.17
2018-09-14T19:16:51.289Z,6.13
2018-09-14T19:19:20.284Z,6.20
2018-09-14T19:21:48.849Z,6.10
2018-09-14T19:24:17.378Z,6.90
2018-09-14T19:26:45.945Z,6.40
2018-09-14T19:29:14.468Z,7.17
2018-09-14T19:31:43.091Z,6.43
2018-09-14T19:34:11.668Z,6.57
2018-09-14T19:36:40.277Z,6.80
2018-09-14T19:39:10.772Z,6.80
2018-09-14T19:41:39.385Z,6.83
2018-09-14T19:44:07.932Z,6.80
2018-09-14T19:46:36.561Z,7.73
2018-09-14T19:49:05.409Z,7.30
2018-09-14T19:51:33.992Z,7.43
2018-09-14T19:54:02.572Z,8.23
2018-09-14T19:56:31.164Z,7.03
2018-09-14T19:58:59.717Z,6.63
2018-09-14T20:01:28.325Z,6.77
2018-09-14T20:03:56.855Z,7.80
2018-09-14T20:06:25.644Z,7.10
2018-09-14T20:08:54.223Z,6.33
2018-09-14T20:11:22.817Z,7.30
2018-09-14T20:13:51.708Z,7.60
2018-09-14T20:16:20.466Z,8.80
2018-09-14T20:18:49.544Z,7.97
2018-09-14T20:21:18.124Z,8.43
2018-09-14T20:23:46.677Z,8.97
2018-09-14T20:26:15.528Z,7.77
2018-09-14T20:28:46.768Z,7.87
2018-09-14T20:31:15.309Z,9.20
2018-09-14T20:33:49.351Z,8.47
2018-09-14T20:36:22.834Z,9.37
2018-09-14T20:38:53.170Z,9.50
2018-09-14T20:41:22.708Z,8.50
2018-09-14T20:43:53.507Z,10.33
2018-09-14T20:46:23.104Z,9.73
2018-09-14T20:48:53.716Z,9.30
2018-09-14T20:51:24.100Z,8.00
2018-09-14T20:53:55.105Z,9.70
2018-09-14T20:56:25.352Z,7.83
2018-09-14T20:58:54.885Z,8.43
2018-09-14T21:01:33.409Z,9.20
2018-09-14T21:04:04.088Z,8.60
2018-09-14T21:06:35.288Z,10.67
2018-09-14T21:09:08.413Z,8.90
2018-09-14T21:11:38.790Z,9.53
2018-09-14T21:14:10.393Z,10.83
2018-09-14T21:16:45.208Z,9.60
2018-09-14T21:19:15.241Z,9.23
2018-09-14T21:21:48.061Z,9.23
2018-09-14T21:24:16.775Z,10.03
2018-09-14T21:26:45.316Z,9.90
2018-09-14T21:29:15.535Z,16.53
2018-09-14T21:31:47.856Z,8.57
2018-09-14T21:34:17.704Z,9.40
2018-09-14T21:36:51.892Z,9.20
2018-09-14T21:39:22.218Z,10.40
2018-09-14T21:41:55.270Z,8.00
2018-09-14T21:44:25.453Z,9.50
2018-09-14T21:46:57.561Z,9.80
2018-09-14T21:49:32.134Z,8.67
2018-09-14T21:52:01.872Z,8.70
2018-09-14T21:54:31.635Z,9.23
2018-09-14T21:57:01.397Z,8.90
2018-09-14T21:59:34.215Z,9.27
2018-09-14T22:02:10.326Z,7.87
2018-09-14T22:04:40.256Z,8.33
2018-09-14T22:07:12.543Z,8.00
2018-09-14T22:09:43.662Z,8.13
2018-09-14T22:12:14.296Z,7.90
2018-09-14T22:14:45.084Z,8.20
2018-09-14T22:17:14.453Z,7.70
2018-09-14T22:19:44.708Z,7.70
2018-09-14T22:22:18.073Z,8.03
2018-09-14T22:24:48.833Z,8.13
2018-09-14T22:27:20.327Z,8.30
2018-09-14T22:29:51.101Z,7.43
2018-09-14T22:32:20.393Z,7.13
2018-09-14T22:34:50.512Z,7.50
2018-09-14T22:37:23.508Z,6.90
2018-09-14T22:39:56.292Z,8.53
2018-09-14T22:42:25.121Z,9.87
2018-09-14T22:44:53.659Z,11.03
2018-09-14T22:47:22.173Z,7.33
2018-09-14T22:49:50.705Z,6.40
2018-09-14T22:52:19.216Z,7.80
2018-09-14T22:54:47.744Z,8.20
2018-09-14T22:57:16.256Z,8.97
2018-09-14T22:59:44.828Z,7.60
2018-09-14T23:02:13.332Z,7.87
2018-09-14T23:04:41.918Z,8.73
2018-09-14T23:07:10.421Z,8.30
2018-09-14T23:09:38.956Z,8.83
2018-09-14T23:12:07.746Z,8.57
2018-09-14T23:14:36.279Z,7.70
2018-09-14T23:17:04.799Z,9.40
2018-09-14T23:19:33.352Z,7.97
2018-09-14T23:22:01.860Z,7.40
2018-09-14T23:24:30.396Z,8.23
2018-09-14T23:26:58.928Z,7.80
2018-09-14T23:29:27.465Z,6.90
2018-09-14T23:31:55.963Z,6.77
2018-09-14T23:34:24.497Z,6.67
2018-09-14T23:36:53.004Z,7.03
2018-09-14T23:39:21.546Z,6.30
2018-09-14T23:41:50.296Z,7.53
2018-09-14T23:44:18.832Z,7.53
2018-09-14T23:46:47.333Z,6.67
2018-09-14T23:49:16.405Z,7.00
2018-09-14T23:51:44.916Z,6.93
2018-09-14T23:54:13.488Z,7.07
2018-09-14T23:56:42.000Z,11.20
2018-09-14T23:59:10.546Z,7.07
